Niceville, Florida
Current Conditions -  °F | °C
As of 5:55 PM on Wednesday 22 Oct 2014 (Local Time) from KVPS Reporting Station
Few Clouds Few Clouds  
Wind Chill: 73°   Ceiling: Unl
Heat Index: 73°   Visibility: 10mi
Dew Point: 46°   Wind: 8mph
Humidity: 37%   Direction: 10°N
Pressure: 30.01"   Gusts: NA
Location:  30.52°N, 86.49°W
Report Text: KVPS 222255Z 01007KT 10SM FEW250 23/08 A3001 RMK AO2A SLP168 T02300076 $
Loading
Personal Weather Stations






























Interactive Weather Map
Tropical Storm Tracking
New forecast layout! Learn more

10-Day Weather Forecast

Advertisements
Track Severe Weather on mobile